createdAt,value
2022-12-23T00:01:51.180Z,81.70
2022-12-23T00:04:18.261Z,81.80
2022-12-23T00:06:45.274Z,82.00
2022-12-23T00:09:12.122Z,82.00
2022-12-23T00:11:58.938Z,81.90
2022-12-23T00:14:44.618Z,82.00
2022-12-23T00:17:22.153Z,82.10
2022-12-23T00:19:49.681Z,82.30
2022-12-23T00:22:16.625Z,82.40
2022-12-23T00:24:43.573Z,82.60
2022-12-23T00:27:10.458Z,83.10
2022-12-23T00:29:37.284Z,83.10
2022-12-23T00:32:04.348Z,83.30
2022-12-23T00:34:31.277Z,83.40
2022-12-23T00:36:58.087Z,83.40
2022-12-23T00:39:43.568Z,83.40
2022-12-23T00:42:29.055Z,83.20
2022-12-23T00:45:15.460Z,83.40
2022-12-23T00:48:03.233Z,83.40
2022-12-23T00:50:31.062Z,83.50
2022-12-23T00:52:58.635Z,83.80
2022-12-23T00:55:25.863Z,84.30
2022-12-23T00:57:52.714Z,83.90
2022-12-23T01:00:20.206Z,83.70
2022-12-23T01:03:05.795Z,84.00
2022-12-23T01:05:38.532Z,84.30
2022-12-23T01:08:09.729Z,84.20
2022-12-23T01:10:39.232Z,84.00
2022-12-23T01:13:06.820Z,84.20
2022-12-23T01:15:34.405Z,84.60
2022-12-23T01:18:01.223Z,84.20
2022-12-23T01:20:28.048Z,84.30
2022-12-23T01:22:54.936Z,84.30
2022-12-23T01:25:21.729Z,84.40
2022-12-23T01:27:48.541Z,84.40
2022-12-23T01:30:15.456Z,84.50
2022-12-23T01:32:42.284Z,84.60
2022-12-23T01:35:09.160Z,84.40
2022-12-23T01:37:36.038Z,84.60
2022-12-23T01:40:03.550Z,84.70
2022-12-23T01:42:46.500Z,84.90
2022-12-23T01:45:30.449Z,84.90
2022-12-23T01:48:05.610Z,84.30
2022-12-23T01:50:49.042Z,84.40
2022-12-23T01:53:26.799Z,83.90
2022-12-23T01:56:12.122Z,84.60
2022-12-23T01:58:47.879Z,84.60
2022-12-23T02:01:34.131Z,85.10
2022-12-23T02:04:07.283Z,85.10
2022-12-23T02:06:57.123Z,85.20
2022-12-23T02:09:25.653Z,85.30
2022-12-23T02:12:05.703Z,85.60
2022-12-23T02:15:36.747Z,84.60
2022-12-23T02:18:44.260Z,84.30
2022-12-23T02:21:53.199Z,85.60
2022-12-23T02:25:17.001Z,84.50
2022-12-23T02:28:21.364Z,84.70
2022-12-23T02:31:20.683Z,84.30
2022-12-23T02:34:04.041Z,84.10
2022-12-23T02:36:39.946Z,85.70
2022-12-23T02:39:22.114Z,85.90
2022-12-23T02:41:59.482Z,85.50
2022-12-23T02:44:41.367Z,85.40
2022-12-23T02:47:20.372Z,85.20
2022-12-23T02:49:53.496Z,85.60
2022-12-23T02:52:27.851Z,86.20
2022-12-23T02:55:05.102Z,86.40
2022-12-23T02:57:38.542Z,86.60
2022-12-23T03:00:07.123Z,86.90
2022-12-23T03:02:39.818Z,87.20
2022-12-23T03:05:27.776Z,87.30
2022-12-23T03:08:00.177Z,88.10
2022-12-23T03:11:08.915Z,87.70
2022-12-23T03:13:50.962Z,86.30
2022-12-23T03:16:48.168Z,88.50
2022-12-23T03:19:32.406Z,88.80
2022-12-23T03:22:35.622Z,88.60
2022-12-23T03:25:35.726Z,87.80
2022-12-23T03:28:13.307Z,87.70
2022-12-23T03:30:46.284Z,89.30
2022-12-23T03:33:23.192Z,89.70
2022-12-23T03:36:00.500Z,89.30
2022-12-23T03:38:31.593Z,89.30
2022-12-23T03:41:06.573Z,89.60
2022-12-23T03:43:50.734Z,89.40
2022-12-23T03:46:26.609Z,88.30
2022-12-23T03:49:01.201Z,89.10
2022-12-23T03:51:36.316Z,89.00
2022-12-23T03:54:17.756Z,88.90
2022-12-23T03:56:56.580Z,88.10
2022-12-23T03:59:36.556Z,87.90
2022-12-23T04:02:40.872Z,87.60
2022-12-23T04:05:41.873Z,87.80
2022-12-23T04:08:31.468Z,85.50
2022-12-23T04:10:59.496Z,85.10
2022-12-23T04:13:31.002Z,87.80
2022-12-23T04:16:00.289Z,87.30
2022-12-23T04:18:28.494Z,87.70
2022-12-23T04:20:55.507Z,87.70
2022-12-23T04:23:22.560Z,87.70
2022-12-23T04:25:49.600Z,87.60
2022-12-23T04:28:18.196Z,87.50
2022-12-23T04:30:45.069Z,87.20
2022-12-23T04:33:12.896Z,87.30
2022-12-23T04:35:39.808Z,87.10
2022-12-23T04:38:06.761Z,87.10
2022-12-23T04:40:33.560Z,87.10
2022-12-23T04:43:00.416Z,87.20
2022-12-23T04:45:27.319Z,87.70
2022-12-23T04:47:55.400Z,87.20
2022-12-23T04:50:22.341Z,87.10
2022-12-23T04:52:49.179Z,87.30
2022-12-23T04:55:16.078Z,87.30
2022-12-23T04:57:42.962Z,87.50
2022-12-23T05:00:10.744Z,87.50
2022-12-23T05:02:40.448Z,87.50
2022-12-23T05:05:07.847Z,87.70
2022-12-23T05:07:34.652Z,87.60
2022-12-23T05:10:02.202Z,87.60
2022-12-23T05:12:31.358Z,87.60
2022-12-23T05:14:58.344Z,87.50
2022-12-23T05:17:25.257Z,87.50
2022-12-23T05:19:52.104Z,87.50
2022-12-23T05:22:19.191Z,87.40
2022-12-23T05:24:46.071Z,87.60
2022-12-23T05:27:12.964Z,87.40
2022-12-23T05:29:39.807Z,87.10
2022-12-23T05:32:06.681Z,86.70
2022-12-23T05:34:33.661Z,86.60
2022-12-23T05:37:00.554Z,86.60
2022-12-23T05:39:27.389Z,86.50
2022-12-23T05:41:54.212Z,86.60
2022-12-23T05:44:21.034Z,86.80
2022-12-23T05:46:47.837Z,86.90
2022-12-23T05:49:14.750Z,87.10
2022-12-23T05:51:41.592Z,87.20
2022-12-23T05:54:08.498Z,87.30
2022-12-23T05:56:35.357Z,87.00
2022-12-23T05:59:03.162Z,86.70
2022-12-23T06:01:30.053Z,86.60
2022-12-23T06:03:56.979Z,86.50
2022-12-23T06:06:23.891Z,86.60
2022-12-23T06:08:55.794Z,86.70
2022-12-23T06:11:26.117Z,86.80
2022-12-23T06:13:52.965Z,87.00
2022-12-23T06:16:19.998Z,87.20
2022-12-23T06:18:46.916Z,87.40
2022-12-23T06:21:13.798Z,87.60
2022-12-23T06:23:40.612Z,87.70
2022-12-23T06:26:07.457Z,87.70
2022-12-23T06:28:34.510Z,87.70
2022-12-23T06:31:01.373Z,87.70
2022-12-23T06:33:28.219Z,87.60
2022-12-23T06:35:55.099Z,87.30
2022-12-23T06:38:22.054Z,86.80
2022-12-23T06:40:48.915Z,86.60
2022-12-23T06:43:15.792Z,86.50
2022-12-23T06:45:49.701Z,86.30
2022-12-23T06:48:17.617Z,85.90
2022-12-23T06:50:44.880Z,86.60
2022-12-23T06:53:12.164Z,87.00
2022-12-23T06:55:39.105Z,87.10
2022-12-23T06:58:06.429Z,87.20
2022-12-23T07:00:33.510Z,87.20
2022-12-23T07:03:00.469Z,87.30
2022-12-23T07:05:33.284Z,87.40
2022-12-23T07:08:03.456Z,87.40
2022-12-23T07:10:30.363Z,87.40
2022-12-23T07:12:57.222Z,87.30
2022-12-23T07:15:24.012Z,87.40
2022-12-23T07:17:50.831Z,87.40
2022-12-23T07:20:17.817Z,87.70
2022-12-23T07:22:44.699Z,87.80
2022-12-23T07:25:11.842Z,87.80
2022-12-23T07:27:38.834Z,87.50
2022-12-23T07:30:06.743Z,87.30
2022-12-23T07:32:33.652Z,87.30
2022-12-23T07:35:00.502Z,87.40
2022-12-23T07:37:27.344Z,87.50
2022-12-23T07:39:54.175Z,87.50
2022-12-23T07:45:08.512Z,87.80
2022-12-23T07:47:35.402Z,87.80
2022-12-23T07:50:02.288Z,87.60
2022-12-23T07:52:30.040Z,87.50
2022-12-23T07:54:56.874Z,86.80
2022-12-23T07:57:24.390Z,86.50
2022-12-23T07:59:51.209Z,86.10
2022-12-23T08:02:18.267Z,86.10
2022-12-23T08:04:46.535Z,86.20
2022-12-23T08:07:13.625Z,86.40
2022-12-23T08:09:40.484Z,86.60
2022-12-23T08:12:07.626Z,86.80
2022-12-23T08:14:34.460Z,87.10
2022-12-23T08:17:01.364Z,87.50
2022-12-23T08:19:28.539Z,87.50
2022-12-23T08:21:55.401Z,87.10
2022-12-23T08:24:22.202Z,87.10
2022-12-23T08:26:49.068Z,87.30
2022-12-23T08:29:15.932Z,87.10
2022-12-23T08:31:42.772Z,87.30
2022-12-23T08:34:10.636Z,87.20
2022-12-23T08:36:39.916Z,87.40
2022-12-23T08:39:10.291Z,87.00
2022-12-23T08:41:41.800Z,87.10
2022-12-23T08:44:09.199Z,86.60
2022-12-23T08:46:37.169Z,87.00
2022-12-23T08:49:05.968Z,87.00
2022-12-23T08:51:33.864Z,86.90
2022-12-23T08:54:01.798Z,87.30
2022-12-23T08:56:33.941Z,87.60
2022-12-23T08:59:01.583Z,88.10
2022-12-23T09:01:32.900Z,82.70
2022-12-23T09:04:04.734Z,87.90
2022-12-23T09:06:42.202Z,87.90
2022-12-23T09:09:11.702Z,86.80
2022-12-23T09:11:39.033Z,88.50
2022-12-23T09:14:10.075Z,88.40
2022-12-23T09:16:37.940Z,88.30
2022-12-23T09:19:05.117Z,87.60
2022-12-23T09:21:32.108Z,87.30
2022-12-23T09:23:58.946Z,87.70
2022-12-23T09:26:30.088Z,87.90
2022-12-23T09:28:58.334Z,87.70
2022-12-23T09:31:30.469Z,87.50
2022-12-23T09:34:01.202Z,87.60
2022-12-23T09:36:29.412Z,87.70
2022-12-23T09:38:58.082Z,87.20
2022-12-23T09:41:32.433Z,87.40
2022-12-23T09:44:43.091Z,87.00
2022-12-23T09:47:18.058Z,83.60
2022-12-23T09:50:00.838Z,86.40
2022-12-23T09:52:46.021Z,86.00
2022-12-23T09:55:15.754Z,84.90
2022-12-23T09:57:56.661Z,87.30
2022-12-23T10:00:23.813Z,85.90
2022-12-23T10:03:25.969Z,81.60
2022-12-23T10:06:29.021Z,84.30
2022-12-23T10:09:02.463Z,83.10
2022-12-23T10:11:37.941Z,86.00
2022-12-23T10:14:37.203Z,86.30
2022-12-23T10:17:25.721Z,85.30
2022-12-23T10:19:58.314Z,83.10
2022-12-23T10:22:43.221Z,86.80
2022-12-23T10:25:35.446Z,83.30
2022-12-23T10:28:02.325Z,82.30
2022-12-23T10:31:17.367Z,87.10
2022-12-23T10:34:02.273Z,86.10
2022-12-23T10:37:03.041Z,82.00
2022-12-23T10:40:14.664Z,84.10
2022-12-23T10:43:04.411Z,82.50
2022-12-23T10:46:03.139Z,82.70
2022-12-23T10:48:48.482Z,85.70
2022-12-23T10:51:25.171Z,86.80
2022-12-23T10:53:59.162Z,85.40
2022-12-23T10:56:28.894Z,86.60
2022-12-23T10:59:00.653Z,86.60
2022-12-23T11:01:31.581Z,85.50
2022-12-23T11:04:13.658Z,85.10
2022-12-23T11:06:47.298Z,83.20
2022-12-23T11:09:23.775Z,84.60
2022-12-23T11:12:03.408Z,84.40
2022-12-23T11:14:51.068Z,85.20
2022-12-23T11:17:22.399Z,84.40
2022-12-23T11:20:20.048Z,85.80
2022-12-23T11:23:03.235Z,84.60
2022-12-23T11:25:37.787Z,84.60
2022-12-23T11:28:10.553Z,86.70
2022-12-23T11:30:55.403Z,85.60
2022-12-23T11:33:31.210Z,85.50
2022-12-23T11:36:24.047Z,87.00
2022-12-23T11:39:19.579Z,84.00
2022-12-23T11:41:54.225Z,84.60
2022-12-23T11:44:42.437Z,86.30
2022-12-23T11:47:25.877Z,84.50
2022-12-23T11:49:59.560Z,84.80
2022-12-23T11:52:31.880Z,85.90
2022-12-23T11:55:03.798Z,86.00
2022-12-23T11:57:45.692Z,86.60
2022-12-23T12:00:36.623Z,82.80
2022-12-23T12:03:06.438Z,82.70
2022-12-23T12:05:40.758Z,86.30
2022-12-23T12:08:22.552Z,85.40
2022-12-23T12:10:53.743Z,85.60
2022-12-23T12:13:32.527Z,86.00
2022-12-23T12:16:21.300Z,84.80
2022-12-23T12:18:55.481Z,84.30
2022-12-23T12:21:33.439Z,86.20
2022-12-23T12:24:18.876Z,84.40
2022-12-23T12:26:57.477Z,84.20
2022-12-23T12:29:35.676Z,85.80
2022-12-23T12:32:07.382Z,84.30
2022-12-23T12:35:00.923Z,85.50
2022-12-23T12:37:48.029Z,84.10
2022-12-23T12:40:54.750Z,82.60
2022-12-23T12:43:31.919Z,82.60
2022-12-23T12:46:39.603Z,84.50
2022-12-23T12:49:35.521Z,81.20
2022-12-23T12:52:15.806Z,82.00
2022-12-23T12:55:25.057Z,83.40
2022-12-23T12:57:52.230Z,83.60
2022-12-23T13:00:23.126Z,84.30
2022-12-23T13:03:12.090Z,84.40
2022-12-23T13:06:03.122Z,81.90
2022-12-23T13:09:12.541Z,84.40
2022-12-23T13:12:36.112Z,83.40
2022-12-23T13:15:36.101Z,83.80
2022-12-23T13:18:19.285Z,84.40
2022-12-23T13:20:59.847Z,85.40
2022-12-23T13:23:51.708Z,85.50
2022-12-23T13:26:40.081Z,85.70
2022-12-23T13:30:01.149Z,84.30
2022-12-23T13:32:56.254Z,84.40
2022-12-23T13:36:04.665Z,83.60
2022-12-23T13:39:00.841Z,85.20
2022-12-23T13:41:36.933Z,84.90
2022-12-23T13:44:08.497Z,86.70
2022-12-23T13:46:49.270Z,87.40
2022-12-23T13:50:10.397Z,87.20
2022-12-23T13:52:57.711Z,85.90
2022-12-23T13:56:05.214Z,84.90
2022-12-23T13:58:33.216Z,86.90
2022-12-23T14:01:31.601Z,87.20
2022-12-23T14:04:36.530Z,86.20
2022-12-23T14:07:21.428Z,85.60
2022-12-23T14:09:56.122Z,87.20
2022-12-23T14:12:29.667Z,86.70
2022-12-23T14:15:58.157Z,87.00
2022-12-23T14:18:56.338Z,85.60
2022-12-23T14:22:06.614Z,87.30
2022-12-23T14:25:11.016Z,86.00
2022-12-23T14:28:05.478Z,88.40
2022-12-23T14:30:46.133Z,87.30
2022-12-23T14:33:26.080Z,87.80
2022-12-23T14:35:56.998Z,87.10
2022-12-23T14:38:34.282Z,87.70
2022-12-23T14:41:50.013Z,87.40
2022-12-23T14:44:35.792Z,86.50
2022-12-23T14:47:28.391Z,86.30
2022-12-23T14:49:55.429Z,87.50
2022-12-23T14:52:58.538Z,87.60
2022-12-23T14:55:31.253Z,86.20
2022-12-23T14:58:24.827Z,87.50
2022-12-23T15:01:02.609Z,87.50
2022-12-23T15:03:43.308Z,87.10
2022-12-23T15:06:29.275Z,87.00
2022-12-23T15:08:57.067Z,87.10
2022-12-23T15:11:30.314Z,87.50
2022-12-23T15:14:02.850Z,87.10
2022-12-23T15:16:40.303Z,87.50
2022-12-23T15:19:21.062Z,87.70
2022-12-23T15:21:54.427Z,87.10
2022-12-23T15:24:25.112Z,87.60
2022-12-23T15:27:24.604Z,87.40
2022-12-23T15:29:49.563Z,87.60
2022-12-23T15:32:18.280Z,87.60
2022-12-23T15:34:48.867Z,87.80
2022-12-23T15:37:27.567Z,87.60
2022-12-23T15:40:03.412Z,87.40
2022-12-23T15:42:38.481Z,87.60
2022-12-23T15:45:39.138Z,87.60
2022-12-23T15:48:25.358Z,85.50
2022-12-23T15:51:02.969Z,87.60
2022-12-23T15:53:36.573Z,87.60
2022-12-23T15:56:10.698Z,87.60
2022-12-23T15:58:42.421Z,87.60
2022-12-23T16:01:17.485Z,87.80
2022-12-23T16:03:59.905Z,87.20
2022-12-23T16:06:36.461Z,86.90
2022-12-23T16:09:32.375Z,88.10
2022-12-23T16:12:25.129Z,86.70
2022-12-23T16:15:00.535Z,86.50
2022-12-23T16:17:36.011Z,87.70
2022-12-23T16:20:26.006Z,87.20
2022-12-23T16:23:03.354Z,87.00
2022-12-23T16:25:33.415Z,87.10
2022-12-23T16:28:04.966Z,88.40
2022-12-23T16:30:33.199Z,88.10
2022-12-23T16:33:04.634Z,88.60
2022-12-23T16:35:43.223Z,88.60
2022-12-23T16:38:17.532Z,87.40
2022-12-23T16:40:48.399Z,88.30
2022-12-23T16:43:15.951Z,88.80
2022-12-23T16:45:45.814Z,85.60
2022-12-23T16:48:35.248Z,89.20
2022-12-23T16:51:07.660Z,87.50
2022-12-23T16:53:34.713Z,89.00
2022-12-23T16:56:02.493Z,89.10
2022-12-23T16:58:29.873Z,89.10
2022-12-23T17:00:57.227Z,88.90
2022-12-23T17:03:24.067Z,89.00
2022-12-23T17:05:50.923Z,89.00
2022-12-23T17:08:17.799Z,89.20
2022-12-23T17:10:45.148Z,89.10
2022-12-23T17:13:16.119Z,89.20
2022-12-23T17:15:43.026Z,89.20
2022-12-23T17:18:18.496Z,89.40
2022-12-23T17:20:48.649Z,88.20
2022-12-23T17:23:31.023Z,89.30
2022-12-23T17:25:58.683Z,87.50
2022-12-23T17:28:33.332Z,89.20
2022-12-23T17:31:00.899Z,88.30
2022-12-23T17:33:32.070Z,89.50
2022-12-23T17:36:00.239Z,89.30
2022-12-23T17:38:30.121Z,89.20
2022-12-23T17:41:00.756Z,89.30
2022-12-23T17:43:27.971Z,89.20
2022-12-23T17:45:55.344Z,89.10
2022-12-23T17:48:28.005Z,89.30
2022-12-23T17:50:58.204Z,89.30
2022-12-23T17:53:25.119Z,89.00
2022-12-23T17:55:51.958Z,88.80
2022-12-23T17:58:19.908Z,88.60
2022-12-23T18:00:46.849Z,88.40
2022-12-23T18:03:23.411Z,88.60
2022-12-23T18:05:54.229Z,87.00
2022-12-23T18:08:26.114Z,88.50
2022-12-23T18:10:52.973Z,88.50
2022-12-23T18:13:21.158Z,88.50
2022-12-23T18:15:48.008Z,88.40
2022-12-23T18:18:31.302Z,88.10
2022-12-23T18:21:02.605Z,87.90
2022-12-23T18:23:32.364Z,87.90
2022-12-23T18:26:00.605Z,88.00
2022-12-23T18:28:27.991Z,88.10
2022-12-23T18:30:58.878Z,88.20
2022-12-23T18:33:28.758Z,87.30
2022-12-23T18:35:56.005Z,88.30
2022-12-23T18:38:23.015Z,88.50
2022-12-23T18:40:53.846Z,88.20
2022-12-23T18:43:23.324Z,88.10
2022-12-23T18:45:53.581Z,83.50
2022-12-23T18:48:21.508Z,87.80
2022-12-23T18:50:48.802Z,88.10
2022-12-23T18:53:24.695Z,88.20
2022-12-23T18:55:53.637Z,88.10
2022-12-23T18:58:21.888Z,88.30
2022-12-23T19:00:52.565Z,88.30
2022-12-23T19:03:29.450Z,88.10
2022-12-23T19:05:58.710Z,85.60
2022-12-23T19:08:27.703Z,88.10
2022-12-23T19:10:55.954Z,88.10
2022-12-23T19:13:24.008Z,88.10
2022-12-23T19:15:51.926Z,88.00
2022-12-23T19:18:21.487Z,88.20
2022-12-23T19:20:49.560Z,88.00
2022-12-23T19:23:17.034Z,88.10
2022-12-23T19:25:52.482Z,88.10
2022-12-23T19:28:22.237Z,87.90
2022-12-23T19:30:49.701Z,88.00
2022-12-23T19:33:16.853Z,87.80
2022-12-23T19:35:44.730Z,87.60
2022-12-23T19:38:12.490Z,87.70
2022-12-23T19:40:40.560Z,87.50
2022-12-23T19:43:07.783Z,87.70
2022-12-23T19:45:34.634Z,87.40
2022-12-23T19:48:01.457Z,87.50
2022-12-23T19:50:28.337Z,87.60
2022-12-23T19:52:56.377Z,87.30
2022-12-23T19:55:24.026Z,87.30
2022-12-23T19:57:51.726Z,87.00
2022-12-23T20:00:18.767Z,87.30
2022-12-23T20:02:45.628Z,87.40
2022-12-23T20:05:12.562Z,87.30
2022-12-23T20:07:39.397Z,87.00
2022-12-23T20:10:07.346Z,87.00
2022-12-23T20:12:34.223Z,87.00
2022-12-23T20:15:01.177Z,86.90
2022-12-23T20:17:28.039Z,87.20
2022-12-23T20:19:54.828Z,87.00
2022-12-23T20:22:21.704Z,86.70
2022-12-23T20:24:49.011Z,86.80
2022-12-23T20:27:16.391Z,86.60
2022-12-23T20:29:44.443Z,86.30
2022-12-23T20:32:11.254Z,86.50
2022-12-23T20:34:40.100Z,86.80
2022-12-23T20:37:08.241Z,86.10
2022-12-23T20:39:35.456Z,86.10
2022-12-23T20:42:02.265Z,85.80
2022-12-23T20:44:37.545Z,85.90
2022-12-23T20:47:06.510Z,85.60
2022-12-23T20:49:34.072Z,85.30
2022-12-23T20:52:01.427Z,85.40
2022-12-23T20:54:33.327Z,84.30
2022-12-23T20:57:02.051Z,83.70
2022-12-23T20:59:29.064Z,83.70
2022-12-23T21:01:58.707Z,83.60
2022-12-23T21:04:25.615Z,83.80
2022-12-23T21:06:52.471Z,84.00
2022-12-23T21:09:19.325Z,84.50
2022-12-23T21:11:48.427Z,84.70
2022-12-23T21:14:16.412Z,84.90
2022-12-23T21:16:44.197Z,85.50
2022-12-23T21:19:20.495Z,85.80
2022-12-23T21:21:48.729Z,85.90
2022-12-23T21:24:18.802Z,86.40
2022-12-23T21:26:50.296Z,86.30
2022-12-23T21:29:21.416Z,86.40
2022-12-23T21:31:48.307Z,86.50
2022-12-23T21:34:15.483Z,86.70
2022-12-23T21:36:42.754Z,86.20
2022-12-23T21:39:15.839Z,83.80
2022-12-23T21:41:43.536Z,83.10
2022-12-23T21:44:14.340Z,83.40
2022-12-23T21:46:41.205Z,83.80
2022-12-23T21:49:08.075Z,81.30
2022-12-23T21:51:40.724Z,83.70
2022-12-23T21:54:10.698Z,84.00
2022-12-23T21:56:39.129Z,85.10
2022-12-23T21:59:14.510Z,85.60
2022-12-23T22:01:43.322Z,85.80
2022-12-23T22:04:10.893Z,85.40
2022-12-23T22:06:43.779Z,85.70
2022-12-23T22:09:15.234Z,86.00
2022-12-23T22:11:42.153Z,86.60
2022-12-23T22:14:14.146Z,87.60
2022-12-23T22:16:41.083Z,88.40
2022-12-23T22:19:09.282Z,89.20
2022-12-23T22:21:37.267Z,89.50
2022-12-23T22:24:04.713Z,89.80
2022-12-23T22:26:33.321Z,89.70
2022-12-23T22:29:05.324Z,89.40
2022-12-23T22:31:45.454Z,89.40
2022-12-23T22:34:17.132Z,88.40
2022-12-23T22:36:44.277Z,89.40
2022-12-23T22:39:19.995Z,89.80
2022-12-23T22:41:48.186Z,89.70
2022-12-23T22:44:15.265Z,89.80
2022-12-23T22:46:42.657Z,89.80
2022-12-23T22:49:14.695Z,89.50
2022-12-23T22:51:42.763Z,88.90
2022-12-23T22:54:10.333Z,89.20
2022-12-23T22:56:37.699Z,89.20
2022-12-23T22:59:04.879Z,89.00
2022-12-23T23:01:34.955Z,89.10
2022-12-23T23:04:03.868Z,89.10
2022-12-23T23:06:34.750Z,88.90
2022-12-23T23:09:01.615Z,88.90
2022-12-23T23:11:28.910Z,87.00
2022-12-23T23:13:56.444Z,89.00
2022-12-23T23:16:25.395Z,89.30
2022-12-23T23:18:53.633Z,89.30
2022-12-23T23:21:21.802Z,89.30
2022-12-23T23:23:49.781Z,89.00
2022-12-23T23:26:17.821Z,88.70
2022-12-23T23:28:45.066Z,88.30
2022-12-23T23:33:59.646Z,87.70
2022-12-23T23:36:26.632Z,87.50
2022-12-23T23:38:53.480Z,87.40
2022-12-23T23:41:23.204Z,87.40
2022-12-23T23:43:51.404Z,87.20
2022-12-23T23:46:18.360Z,87.10
2022-12-23T23:48:45.210Z,87.00
2022-12-23T23:51:12.715Z,86.90
2022-12-23T23:53:40.245Z,86.90
2022-12-23T23:56:08.620Z,87.20
2022-12-23T23:58:37.728Z,86.60
